Sawbridgeworth, United Kingdom
Current Conditions -  °F | °C
As of 11:50 AM on Monday 22 Dec 2014 (Local Time) from EGSS Reporting Station
Overcast Overcast  
Wind Chill: 55°   Ceiling: 2000
Heat Index: 55°   Visibility: 6mi
Dew Point: 48°   Wind: 17mph
Humidity: 77%   Direction: 260°W
Pressure: 30"   Gusts: 37mph
Location:  51.8°N, 0.14°E
Report Text: EGSS 221150Z 26015G32KT 9999 OVC020 13/09 Q1016
Loading
Personal Weather Stations






























Interactive Weather Map New forecast layout! Learn more

10-Day Weather Forecast

Advertisements
Track Severe Weather on mobile